Avon, Utah
Current Conditions -  °F | °C
As of 4:35 AM on Tuesday 21 Oct 2014 (Local Time) from KBMC Reporting Station
Scattered Clouds Scattered Clouds  
Wind Chill: 62°   Ceiling: Unl
Heat Index: 62°   Visibility: 10mi
Dew Point: 42°   Wind: 3mph
Humidity: 47%   Direction: 270°W
Pressure: 29.85"   Gusts: NA
Location:  41.5397°N, 111.856°W
Report Text: KBMC 211035Z AUTO 27003KT 10SM SCT120 17/05 A2985 RMK AO1 T01660053
Loading
Personal Weather Stations






























Interactive Weather Map
Tropical Storm Tracking
New forecast layout! Learn more

10-Day Weather Forecast

Advertisements
Track Severe Weather on mobile